createdAt,value
2018-08-04T00:00:38.139Z,10.60
2018-08-04T00:03:06.925Z,10.17
2018-08-04T00:05:35.695Z,10.00
2018-08-04T00:08:04.543Z,10.30
2018-08-04T00:10:33.032Z,10.17
2018-08-04T00:13:01.801Z,9.87
2018-08-04T00:15:30.667Z,10.33
2018-08-04T00:17:59.397Z,10.67
2018-08-04T00:20:28.295Z,9.80
2018-08-04T00:22:57.243Z,9.00
2018-08-04T00:25:26.152Z,11.37
2018-08-04T00:27:54.992Z,9.83
2018-08-04T00:30:23.990Z,10.90
2018-08-04T00:32:52.932Z,11.43
2018-08-04T00:35:21.833Z,9.90
2018-08-04T00:37:50.689Z,10.10
2018-08-04T00:40:19.592Z,10.40
2018-08-04T00:42:48.622Z,11.60
2018-08-04T00:45:17.868Z,10.80
2018-08-04T00:47:47.280Z,11.23
2018-08-04T00:50:16.080Z,11.80
2018-08-04T00:52:44.808Z,11.23
2018-08-04T00:55:13.601Z,10.70
2018-08-04T00:57:42.448Z,10.90
2018-08-04T01:00:11.284Z,10.57
2018-08-04T01:02:40.130Z,10.20
2018-08-04T01:05:08.901Z,10.57
2018-08-04T01:07:37.679Z,10.40
2018-08-04T01:10:10.694Z,10.30
2018-08-04T01:12:43.710Z,11.67
2018-08-04T01:15:16.671Z,10.10
2018-08-04T01:17:51.033Z,10.23
2018-08-04T01:20:23.947Z,9.73
2018-08-04T01:22:57.932Z,11.27
2018-08-04T01:25:30.689Z,10.30
2018-08-04T01:28:03.517Z,11.33
2018-08-04T01:30:37.677Z,10.03
2018-08-04T01:33:11.547Z,10.73
2018-08-04T01:35:46.658Z,11.37
2018-08-04T01:38:19.757Z,10.13
2018-08-04T01:40:54.707Z,11.60
2018-08-04T01:43:28.015Z,11.47
2018-08-04T01:46:02.735Z,10.90
2018-08-04T01:48:36.789Z,11.60
2018-08-04T01:51:10.846Z,11.50
2018-08-04T01:53:44.414Z,11.60
2018-08-04T01:56:19.924Z,11.50
2018-08-04T01:58:53.202Z,10.40
2018-08-04T02:01:26.022Z,10.80
2018-08-04T02:03:59.092Z,11.83
2018-08-04T02:06:32.345Z,12.20
2018-08-04T02:09:06.971Z,13.57
2018-08-04T02:11:39.880Z,10.73
2018-08-04T02:14:13.138Z,11.03
2018-08-04T02:16:45.959Z,11.93
2018-08-04T02:19:18.522Z,12.67
2018-08-04T02:21:52.260Z,12.30
2018-08-04T02:24:22.850Z,12.07
2018-08-04T02:26:54.698Z,12.40
2018-08-04T02:29:25.310Z,11.83
2018-08-04T02:31:57.422Z,12.20
2018-08-04T02:34:31.290Z,13.10
2018-08-04T02:37:00.372Z,13.87
2018-08-04T02:39:29.132Z,11.17
2018-08-04T02:41:57.846Z,12.57
2018-08-04T02:44:26.630Z,11.67
2018-08-04T02:46:55.382Z,12.13
2018-08-04T02:49:24.264Z,11.27
2018-08-04T02:51:52.983Z,12.23
2018-08-04T02:54:21.672Z,14.43
2018-08-04T02:56:50.464Z,12.10
2018-08-04T02:59:19.329Z,11.90
2018-08-04T03:01:48.058Z,12.20
2018-08-04T03:04:16.824Z,12.60
2018-08-04T03:06:45.531Z,12.37
2018-08-04T03:09:14.423Z,12.10
2018-08-04T03:11:43.385Z,12.67
2018-08-04T03:14:12.269Z,12.10
2018-08-04T03:16:40.978Z,12.20
2018-08-04T03:19:09.653Z,12.90
2018-08-04T03:21:38.410Z,12.97
2018-08-04T03:24:07.172Z,11.67
2018-08-04T03:26:35.995Z,13.37
2018-08-04T03:29:04.798Z,12.73
2018-08-04T03:31:33.580Z,12.03
2018-08-04T03:34:02.282Z,12.10
2018-08-04T03:36:31.084Z,12.10
2018-08-04T03:38:59.962Z,13.03
2018-08-04T03:41:28.693Z,13.10
2018-08-04T03:43:57.422Z,12.13
2018-08-04T03:46:26.129Z,13.20
2018-08-04T03:48:54.890Z,13.63
2018-08-04T03:51:23.633Z,12.87
2018-08-04T03:53:52.542Z,12.93
2018-08-04T03:56:21.525Z,13.17
2018-08-04T03:58:50.341Z,13.20
2018-08-04T04:01:18.678Z,12.70
2018-08-04T04:03:47.483Z,14.43
2018-08-04T04:06:16.277Z,13.60
2018-08-04T04:08:45.073Z,13.70
2018-08-04T04:11:13.772Z,13.50
2018-08-04T04:13:42.489Z,13.30
2018-08-04T04:16:11.291Z,12.97
2018-08-04T04:18:40.040Z,13.17
2018-08-04T04:21:08.768Z,11.87
2018-08-04T04:23:37.493Z,12.70
2018-08-04T04:26:06.281Z,13.60
2018-08-04T04:28:35.026Z,13.60
2018-08-04T04:31:03.736Z,13.97
2018-08-04T04:33:32.438Z,13.03
2018-08-04T04:36:01.207Z,13.23
2018-08-04T04:38:29.996Z,13.27
2018-08-04T04:40:58.823Z,14.30
2018-08-04T04:43:27.544Z,14.10
2018-08-04T04:45:56.388Z,13.30
2018-08-04T04:48:25.247Z,13.70
2018-08-04T04:50:54.026Z,13.80
2018-08-04T04:53:22.732Z,13.83
2018-08-04T04:55:51.509Z,13.17
2018-08-04T04:58:20.298Z,13.03
2018-08-04T05:00:49.082Z,13.23
2018-08-04T05:03:17.860Z,14.07
2018-08-04T05:05:46.574Z,14.37
2018-08-04T05:08:15.324Z,13.37
2018-08-04T05:10:44.088Z,13.97
2018-08-04T05:13:12.823Z,14.10
2018-08-04T05:15:41.628Z,14.80
2018-08-04T05:18:10.410Z,13.40
2018-08-04T05:20:39.167Z,14.63
2018-08-04T05:23:08.007Z,13.67
2018-08-04T05:25:36.758Z,13.60
2018-08-04T05:28:05.585Z,12.43
2018-08-04T05:30:34.280Z,13.57
2018-08-04T05:33:03.114Z,14.30
2018-08-04T05:35:31.914Z,13.83
2018-08-04T05:38:00.700Z,14.57
2018-08-04T05:40:29.473Z,14.63
2018-08-04T05:42:57.896Z,15.23
2018-08-04T05:45:26.648Z,14.97
2018-08-04T05:47:55.469Z,14.70
2018-08-04T05:50:24.230Z,17.03
2018-08-04T05:52:53.045Z,14.60
2018-08-04T05:55:21.765Z,16.00
2018-08-04T05:57:50.659Z,16.43
2018-08-04T06:00:19.406Z,17.03
2018-08-04T06:02:48.188Z,17.10
2018-08-04T06:05:17.021Z,15.13
2018-08-04T06:07:45.800Z,15.40
2018-08-04T06:10:14.550Z,16.20
2018-08-04T06:12:43.338Z,15.67
2018-08-04T06:15:12.052Z,15.70
2018-08-04T06:17:47.316Z,16.77
2018-08-04T06:20:16.004Z,16.17
2018-08-04T06:22:44.771Z,18.17
2018-08-04T06:25:13.517Z,17.73
2018-08-04T06:27:42.309Z,17.80
2018-08-04T06:30:12.150Z,16.03
2018-08-04T06:32:42.061Z,15.20
2018-08-04T06:35:11.393Z,15.50
2018-08-04T06:37:40.142Z,16.80
2018-08-04T06:40:09.177Z,15.00
2018-08-04T06:42:38.011Z,17.90
2018-08-04T06:45:06.913Z,17.07
2018-08-04T06:47:35.741Z,16.27
2018-08-04T06:50:04.632Z,16.20
2018-08-04T06:52:33.312Z,16.90
2018-08-04T06:55:02.054Z,17.20
2018-08-04T06:57:30.813Z,15.60
2018-08-04T06:59:59.533Z,15.50
2018-08-04T07:02:28.320Z,14.93
2018-08-04T07:04:57.070Z,15.30
2018-08-04T07:07:25.808Z,16.07
2018-08-04T07:09:54.530Z,16.70
2018-08-04T07:12:23.296Z,15.60
2018-08-04T07:14:52.050Z,15.70
2018-08-04T07:17:20.799Z,14.67
2018-08-04T07:19:49.547Z,15.73
2018-08-04T07:22:18.418Z,14.83
2018-08-04T07:24:47.144Z,14.37
2018-08-04T07:27:15.889Z,15.67
2018-08-04T07:29:44.552Z,15.87
2018-08-04T07:32:13.327Z,16.83
2018-08-04T07:34:42.120Z,13.97
2018-08-04T07:37:10.960Z,16.00
2018-08-04T07:39:39.907Z,15.60
2018-08-04T07:42:08.736Z,15.57
2018-08-04T07:44:37.111Z,15.87
2018-08-04T07:47:06.046Z,16.07
2018-08-04T07:49:34.767Z,15.80
2018-08-04T07:52:03.628Z,15.07
2018-08-04T07:54:32.578Z,15.70
2018-08-04T07:57:00.881Z,13.97
2018-08-04T07:59:29.822Z,15.57
2018-08-04T08:01:58.496Z,16.10
2018-08-04T08:04:27.240Z,15.27
2018-08-04T08:06:55.927Z,15.50
2018-08-04T08:09:24.822Z,15.90
2018-08-04T08:11:53.610Z,15.53
2018-08-04T08:14:22.369Z,15.80
2018-08-04T08:16:51.470Z,16.33
2018-08-04T08:19:20.957Z,15.93
2018-08-04T08:21:50.741Z,15.80
2018-08-04T08:24:19.598Z,17.30
2018-08-04T08:26:48.067Z,15.30
2018-08-04T08:29:17.477Z,15.40
2018-08-04T08:31:46.404Z,14.27
2018-08-04T08:34:15.155Z,15.77
2018-08-04T08:36:43.977Z,15.60
2018-08-04T08:39:12.757Z,15.73
2018-08-04T08:41:41.786Z,15.00
2018-08-04T08:44:10.145Z,15.60
2018-08-04T08:46:39.189Z,15.93
2018-08-04T08:49:07.893Z,15.70
2018-08-04T08:51:36.705Z,14.40
2018-08-04T08:54:06.170Z,15.30
2018-08-04T08:56:34.932Z,14.57
2018-08-04T08:59:03.709Z,16.00
2018-08-04T09:01:32.498Z,13.10
2018-08-04T09:04:01.414Z,13.77
2018-08-04T09:06:30.303Z,15.00
2018-08-04T09:08:58.994Z,16.40
2018-08-04T09:11:27.876Z,15.23
2018-08-04T09:13:56.614Z,15.20
2018-08-04T09:16:25.527Z,14.57
2018-08-04T09:18:54.704Z,14.87
2018-08-04T09:21:23.553Z,15.33
2018-08-04T09:23:52.429Z,14.23
2018-08-04T09:26:21.339Z,14.50
2018-08-04T09:28:50.074Z,15.00
2018-08-04T09:31:18.818Z,14.30
2018-08-04T09:33:47.753Z,15.50
2018-08-04T09:36:16.491Z,15.60
2018-08-04T09:38:45.452Z,13.03
2018-08-04T09:41:14.670Z,15.73
2018-08-04T09:43:43.855Z,14.50
2018-08-04T09:46:12.775Z,12.90
2018-08-04T09:48:41.579Z,14.13
2018-08-04T09:51:10.405Z,14.40
2018-08-04T09:53:39.163Z,13.70
2018-08-04T09:56:08.256Z,14.07
2018-08-04T09:58:37.064Z,13.43
2018-08-04T10:01:11.465Z,12.23
2018-08-04T10:03:40.141Z,14.17
2018-08-04T10:06:08.938Z,12.50
2018-08-04T10:08:37.720Z,11.50
2018-08-04T10:11:06.671Z,12.27
2018-08-04T10:13:35.570Z,12.53
2018-08-04T10:16:04.451Z,13.30
2018-08-04T10:18:33.208Z,11.83
2018-08-04T10:21:01.961Z,11.10
2018-08-04T10:23:30.665Z,13.53
2018-08-04T10:25:59.407Z,12.20
2018-08-04T10:28:28.124Z,11.60
2018-08-04T10:30:56.871Z,11.90
2018-08-04T10:33:26.043Z,11.80
2018-08-04T10:35:55.697Z,12.53
2018-08-04T10:38:24.550Z,13.63
2018-08-04T10:40:53.811Z,13.97
2018-08-04T10:43:23.301Z,12.80
2018-08-04T10:45:52.297Z,11.80
2018-08-04T10:48:21.064Z,12.70
2018-08-04T10:50:50.213Z,11.70
2018-08-04T10:53:19.241Z,11.30
2018-08-04T10:55:48.377Z,11.30
2018-08-04T10:58:17.518Z,9.33
2018-08-04T11:00:46.549Z,8.53
2018-08-04T11:03:15.855Z,9.00
2018-08-04T11:05:44.718Z,10.03
2018-08-04T11:08:13.739Z,9.37
2018-08-04T11:10:42.859Z,8.60
2018-08-04T11:13:11.359Z,8.83
2018-08-04T11:15:40.269Z,8.30
2018-08-04T11:18:09.295Z,8.17
2018-08-04T11:20:38.236Z,9.03
2018-08-04T11:23:07.100Z,7.67
2018-08-04T11:25:35.946Z,8.87
2018-08-04T11:28:04.705Z,8.30
2018-08-04T11:30:33.422Z,8.17
2018-08-04T11:33:02.167Z,8.47
2018-08-04T11:35:31.021Z,7.50
2018-08-04T11:37:59.733Z,8.30
2018-08-04T11:40:28.522Z,7.77
2018-08-04T11:42:57.217Z,7.40
2018-08-04T11:45:26.090Z,7.90
2018-08-04T11:47:54.750Z,7.70
2018-08-04T11:50:23.481Z,7.67
2018-08-04T11:52:52.213Z,8.30
2018-08-04T11:55:20.947Z,7.73
2018-08-04T11:57:49.620Z,9.27
2018-08-04T12:00:18.324Z,8.63
2018-08-04T12:02:47.125Z,8.40
2018-08-04T12:05:15.873Z,9.00
2018-08-04T12:07:44.628Z,8.17
2018-08-04T12:10:13.631Z,7.57
2018-08-04T12:12:42.282Z,9.63
2018-08-04T12:15:11.053Z,8.63
2018-08-04T12:17:39.811Z,7.80
2018-08-04T12:20:08.170Z,8.17
2018-08-04T12:22:37.176Z,8.20
2018-08-04T12:25:05.906Z,7.87
2018-08-04T12:27:34.640Z,7.87
2018-08-04T12:30:03.393Z,7.97
2018-08-04T12:32:32.177Z,6.70
2018-08-04T12:35:01.091Z,8.70
2018-08-04T12:37:29.921Z,7.40
2018-08-04T12:39:58.662Z,7.03
2018-08-04T12:42:27.422Z,8.00
2018-08-04T12:44:56.491Z,7.40
2018-08-04T12:47:25.173Z,7.23
2018-08-04T12:49:53.880Z,8.57
2018-08-04T12:52:22.874Z,7.23
2018-08-04T12:54:52.157Z,9.57
2018-08-04T12:57:21.397Z,9.87
2018-08-04T12:59:50.117Z,9.97
2018-08-04T13:02:18.847Z,9.60
2018-08-04T13:04:47.562Z,9.23
2018-08-04T13:07:16.336Z,9.90
2018-08-04T13:09:45.082Z,8.87
2018-08-04T13:12:13.950Z,8.73
2018-08-04T13:14:42.842Z,7.57
2018-08-04T13:17:11.576Z,8.10
2018-08-04T13:19:40.286Z,7.57
2018-08-04T13:22:09.062Z,8.17
2018-08-04T13:24:37.792Z,9.03
2018-08-04T13:27:06.561Z,7.17
2018-08-04T13:29:35.275Z,9.23
2018-08-04T13:32:04.333Z,9.67
2018-08-04T13:34:33.123Z,9.20
2018-08-04T13:37:02.186Z,8.43
2018-08-04T13:39:31.191Z,7.70
2018-08-04T13:41:59.973Z,7.40
2018-08-04T13:44:28.725Z,7.23
2018-08-04T13:46:57.526Z,7.50
2018-08-04T13:49:26.309Z,8.00
2018-08-04T13:51:55.105Z,7.67
2018-08-04T13:54:23.904Z,6.70
2018-08-04T13:56:52.644Z,7.17
2018-08-04T13:59:21.332Z,6.70
2018-08-04T14:01:50.153Z,7.03
2018-08-04T14:04:18.828Z,6.50
2018-08-04T14:06:47.539Z,7.00
2018-08-04T14:09:16.297Z,7.47
2018-08-04T14:11:45.252Z,7.47
2018-08-04T14:14:13.972Z,6.00
2018-08-04T14:16:42.732Z,7.20
2018-08-04T14:19:11.445Z,7.30
2018-08-04T14:21:40.162Z,6.60
2018-08-04T14:24:08.871Z,7.60
2018-08-04T14:26:37.184Z,7.97
2018-08-04T14:29:06.063Z,7.53
2018-08-04T14:31:34.781Z,7.60
2018-08-04T14:34:03.513Z,7.20
2018-08-04T14:36:32.312Z,8.00
2018-08-04T14:39:01.069Z,7.60
2018-08-04T14:41:29.765Z,7.53
2018-08-04T14:43:59.375Z,8.03
2018-08-04T14:46:28.348Z,7.30
2018-08-04T14:48:57.062Z,7.87
2018-08-04T14:51:25.651Z,7.83
2018-08-04T14:53:54.418Z,7.43
2018-08-04T14:56:23.157Z,7.07
2018-08-04T14:58:53.213Z,8.97
2018-08-04T15:01:22.352Z,7.17
2018-08-04T15:03:51.241Z,7.93
2018-08-04T15:06:20.564Z,6.43
2018-08-04T15:08:49.345Z,7.00
2018-08-04T15:11:18.142Z,6.60
2018-08-04T15:13:46.996Z,6.70
2018-08-04T15:16:15.868Z,7.47
2018-08-04T15:18:44.996Z,6.90
2018-08-04T15:21:14.000Z,8.10
2018-08-04T15:23:42.897Z,7.53
2018-08-04T15:26:11.932Z,8.07
2018-08-04T15:28:40.870Z,7.43
2018-08-04T15:31:09.730Z,6.80
2018-08-04T15:33:38.446Z,7.20
2018-08-04T15:36:07.614Z,8.53
2018-08-04T15:38:36.705Z,8.60
2018-08-04T15:41:05.876Z,7.60
2018-08-04T15:43:34.977Z,8.30
2018-08-04T15:46:03.799Z,7.97
2018-08-04T15:48:32.587Z,7.07
2018-08-04T15:51:01.378Z,7.27
2018-08-04T15:53:30.133Z,7.47
2018-08-04T15:55:59.149Z,8.00
2018-08-04T15:58:28.143Z,8.73
2018-08-04T16:00:57.197Z,8.63
2018-08-04T16:03:26.313Z,7.40
2018-08-04T16:05:55.452Z,8.27
2018-08-04T16:08:24.350Z,8.00
2018-08-04T16:10:53.148Z,8.40
2018-08-04T16:13:21.996Z,8.17
2018-08-04T16:15:50.747Z,8.67
2018-08-04T16:18:19.478Z,8.13
2018-08-04T16:20:48.144Z,8.40
2018-08-04T16:23:16.900Z,8.10
2018-08-04T16:25:45.672Z,8.70
2018-08-04T16:28:14.516Z,8.60
2018-08-04T16:30:43.204Z,8.60
2018-08-04T16:33:12.331Z,8.77
2018-08-04T16:35:41.039Z,8.63
2018-08-04T16:38:09.977Z,8.57
2018-08-04T16:40:38.731Z,8.57
2018-08-04T16:43:07.506Z,9.53
2018-08-04T16:45:35.917Z,8.03
2018-08-04T16:48:04.657Z,8.43
2018-08-04T16:50:33.393Z,8.70
2018-08-04T16:53:02.144Z,9.17
2018-08-04T16:55:31.103Z,9.93
2018-08-04T16:57:59.861Z,9.00
2018-08-04T17:00:28.653Z,10.00
2018-08-04T17:02:57.445Z,10.20
2018-08-04T17:05:26.175Z,8.37
2018-08-04T17:07:54.869Z,9.07
2018-08-04T17:10:23.674Z,9.00
2018-08-04T17:12:52.403Z,9.00
2018-08-04T17:15:21.215Z,10.20
2018-08-04T17:17:50.090Z,9.57
2018-08-04T17:20:18.868Z,8.93
2018-08-04T17:22:47.680Z,8.90
2018-08-04T17:25:16.389Z,9.63
2018-08-04T17:27:45.157Z,8.80
2018-08-04T17:30:14.048Z,9.03
2018-08-04T17:32:42.777Z,9.40
2018-08-04T17:35:12.040Z,9.17
2018-08-04T17:37:40.937Z,9.40
2018-08-04T17:40:09.712Z,9.30
2018-08-04T17:42:38.502Z,9.87
2018-08-04T17:45:07.458Z,8.90
2018-08-04T17:47:36.288Z,9.77
2018-08-04T17:50:05.121Z,9.73
2018-08-04T17:52:33.863Z,10.43
2018-08-04T17:55:03.086Z,9.60
2018-08-04T17:57:31.774Z,9.80
2018-08-04T18:00:00.555Z,9.40
2018-08-04T18:02:29.289Z,8.60
2018-08-04T18:04:58.005Z,9.63
2018-08-04T18:07:27.180Z,9.53
2018-08-04T18:09:56.057Z,10.20
2018-08-04T18:12:24.770Z,9.10
2018-08-04T18:14:53.672Z,10.17
2018-08-04T18:17:22.620Z,10.00
2018-08-04T18:19:51.306Z,9.40
2018-08-04T18:22:20.096Z,8.70
2018-08-04T18:24:48.971Z,8.33
2018-08-04T18:27:18.056Z,9.37
2018-08-04T18:29:47.056Z,9.63
2018-08-04T18:32:15.833Z,9.40
2018-08-04T18:34:45.188Z,8.97
2018-08-04T18:37:14.483Z,11.60
2018-08-04T18:39:43.397Z,11.80
2018-08-04T18:42:12.453Z,11.67
2018-08-04T18:44:41.523Z,13.43
2018-08-04T18:47:10.692Z,10.67
2018-08-04T18:49:39.759Z,9.47
2018-08-04T18:52:08.777Z,11.27
2018-08-04T18:54:37.557Z,10.37
2018-08-04T18:57:06.743Z,10.43
2018-08-04T18:59:36.334Z,11.77
2018-08-04T19:02:05.295Z,11.40
2018-08-04T19:04:34.278Z,12.03
2018-08-04T19:07:03.106Z,12.07
2018-08-04T19:09:32.403Z,11.73
2018-08-04T19:12:01.124Z,12.10
2018-08-04T19:14:30.079Z,12.93
2018-08-04T19:16:58.863Z,12.00
2018-08-04T19:19:27.689Z,11.60
2018-08-04T19:21:56.464Z,12.40
2018-08-04T19:24:25.403Z,12.33
2018-08-04T19:26:54.372Z,11.67
2018-08-04T19:29:23.161Z,11.90
2018-08-04T19:31:51.643Z,11.20
2018-08-04T19:34:20.623Z,10.70
2018-08-04T19:36:49.515Z,12.20
2018-08-04T19:39:18.234Z,10.30
2018-08-04T19:41:47.003Z,11.43
2018-08-04T19:44:16.072Z,11.93
2018-08-04T19:46:45.272Z,10.87
2018-08-04T19:49:14.175Z,11.00
2018-08-04T19:51:42.913Z,10.77
2018-08-04T19:54:11.748Z,12.00
2018-08-04T19:56:40.454Z,11.93
2018-08-04T19:59:09.394Z,11.80
2018-08-04T20:01:38.635Z,10.60
2018-08-04T20:04:12.816Z,11.27
2018-08-04T20:06:41.565Z,13.20
2018-08-04T20:09:11.609Z,12.20
2018-08-04T20:11:40.959Z,13.70
2018-08-04T20:14:09.758Z,12.03
2018-08-04T20:16:38.670Z,13.13
2018-08-04T20:19:07.505Z,11.23
2018-08-04T20:21:36.322Z,12.00
2018-08-04T20:24:05.160Z,11.60
2018-08-04T20:26:33.904Z,13.40
2018-08-04T20:29:02.280Z,13.20
2018-08-04T20:31:31.176Z,12.50
2018-08-04T20:34:00.333Z,13.10
2018-08-04T20:36:29.342Z,13.50
2018-08-04T20:38:58.120Z,13.13
2018-08-04T20:41:27.057Z,12.73
2018-08-04T20:43:55.811Z,12.87
2018-08-04T20:46:24.664Z,12.90
2018-08-04T20:48:53.429Z,14.40
2018-08-04T20:51:22.187Z,12.30
2018-08-04T20:53:51.425Z,13.90
2018-08-04T20:56:20.379Z,12.63
2018-08-04T20:58:49.485Z,12.10
2018-08-04T21:01:29.278Z,12.20
2018-08-04T21:03:58.071Z,12.40
2018-08-04T21:06:27.012Z,13.17
2018-08-04T21:08:55.987Z,12.60
2018-08-04T21:11:25.053Z,12.17
2018-08-04T21:13:53.748Z,13.10
2018-08-04T21:16:22.666Z,12.50
2018-08-04T21:18:51.474Z,12.53
2018-08-04T21:21:20.348Z,11.77
2018-08-04T21:23:49.766Z,12.60
2018-08-04T21:26:18.867Z,11.80
2018-08-04T21:28:47.714Z,12.97
2018-08-04T21:31:16.419Z,11.73
2018-08-04T21:33:45.240Z,14.00
2018-08-04T21:36:14.063Z,14.70
2018-08-04T21:38:42.911Z,12.73
2018-08-04T21:41:11.247Z,13.20
2018-08-04T21:43:40.084Z,12.40
2018-08-04T21:46:09.015Z,12.57
2018-08-04T21:48:37.970Z,13.70
2018-08-04T21:51:06.945Z,14.73
2018-08-04T21:53:35.875Z,15.00
2018-08-04T21:56:05.013Z,13.10
2018-08-04T21:58:33.800Z,12.83
2018-08-04T22:01:07.869Z,13.40
2018-08-04T22:03:36.668Z,14.53
2018-08-04T22:06:05.880Z,14.83
2018-08-04T22:08:45.894Z,13.80
2018-08-04T22:11:14.721Z,14.13
2018-08-04T22:13:43.615Z,13.30
2018-08-04T22:16:12.610Z,14.90
2018-08-04T22:18:41.789Z,14.07
2018-08-04T22:21:10.695Z,13.33
2018-08-04T22:23:39.616Z,13.30
2018-08-04T22:26:08.698Z,13.17
2018-08-04T22:28:37.897Z,12.97
2018-08-04T22:31:06.954Z,13.80
2018-08-04T22:33:35.873Z,13.00
2018-08-04T22:36:04.683Z,13.27
2018-08-04T22:38:33.436Z,13.67
2018-08-04T22:41:02.771Z,13.60
2018-08-04T22:43:31.612Z,12.87
2018-08-04T22:46:02.572Z,13.53
2018-08-04T22:48:31.564Z,11.70
2018-08-04T22:51:00.533Z,12.07
2018-08-04T22:53:29.509Z,13.13
2018-08-04T22:55:58.257Z,13.40
2018-08-04T22:58:27.063Z,12.83
2018-08-04T23:00:56.045Z,13.13
2018-08-04T23:03:24.962Z,14.80
2018-08-04T23:05:54.263Z,13.80
2018-08-04T23:08:23.311Z,14.27
2018-08-04T23:10:52.499Z,14.07
2018-08-04T23:13:21.499Z,14.73
2018-08-04T23:15:50.629Z,15.27
2018-08-04T23:18:19.574Z,15.37
2018-08-04T23:20:48.448Z,15.23
2018-08-04T23:23:17.580Z,14.17
2018-08-04T23:25:46.467Z,15.53
2018-08-04T23:28:15.694Z,15.53
2018-08-04T23:30:44.493Z,16.07
2018-08-04T23:33:13.179Z,15.50
2018-08-04T23:35:42.077Z,15.40
2018-08-04T23:38:11.192Z,14.37
2018-08-04T23:40:39.905Z,14.37
2018-08-04T23:43:08.797Z,15.50
2018-08-04T23:45:37.705Z,16.03
2018-08-04T23:48:06.525Z,14.50
2018-08-04T23:50:35.620Z,14.13
2018-08-04T23:53:04.481Z,14.90
2018-08-04T23:55:33.230Z,14.50
2018-08-04T23:58:02.049Z,15.40
